createdAt,value
2022-10-23T00:03:00.319Z,67.54
2022-10-23T00:06:05.211Z,67.13
2022-10-23T00:09:11.010Z,66.95
2022-10-23T00:12:14.415Z,67.24
2022-10-23T00:15:20.679Z,67.03
2022-10-23T00:18:25.614Z,67.50
2022-10-23T00:21:29.433Z,67.62
2022-10-23T00:24:32.727Z,67.22
2022-10-23T00:27:36.679Z,67.51
2022-10-23T00:30:40.038Z,67.32
2022-10-23T00:33:45.839Z,67.67
2022-10-23T00:36:49.390Z,67.04
2022-10-23T00:39:53.440Z,67.42
2022-10-23T00:42:56.923Z,67.40
2022-10-23T00:46:00.815Z,67.36
2022-10-23T00:49:07.411Z,67.47
2022-10-23T00:52:14.468Z,67.70
2022-10-23T00:55:20.768Z,67.76
2022-10-23T00:58:24.743Z,67.89
2022-10-23T01:01:28.417Z,67.62
2022-10-23T01:04:34.429Z,67.71
2022-10-23T01:07:51.516Z,67.59
2022-10-23T01:11:05.090Z,67.87
2022-10-23T01:14:24.538Z,67.87
2022-10-23T01:17:39.630Z,67.58
2022-10-23T01:20:54.443Z,68.01
2022-10-23T01:24:26.813Z,68.14
2022-10-23T01:27:37.104Z,68.20
2022-10-23T01:30:45.464Z,68.04
2022-10-23T01:33:57.564Z,68.31
2022-10-23T01:37:08.121Z,67.79
2022-10-23T01:40:21.430Z,67.90
2022-10-23T01:43:31.592Z,67.59
2022-10-23T01:46:37.590Z,68.45
2022-10-23T01:49:45.763Z,68.34
2022-10-23T01:52:49.186Z,68.16
2022-10-23T01:55:56.657Z,68.15
2022-10-23T01:59:06.739Z,68.15
2022-10-23T02:02:16.529Z,68.02
2022-10-23T02:05:25.387Z,69.17
2022-10-23T02:08:29.249Z,68.62
2022-10-23T02:11:38.880Z,68.68
2022-10-23T02:14:51.724Z,68.97
2022-10-23T02:18:04.439Z,68.81
2022-10-23T02:21:12.598Z,68.46
2022-10-23T02:24:21.440Z,68.58
2022-10-23T02:27:30.613Z,69.47
2022-10-23T02:30:39.420Z,68.93
2022-10-23T02:33:48.859Z,68.76
2022-10-23T02:36:52.422Z,68.30
2022-10-23T02:39:58.944Z,68.12
2022-10-23T02:43:15.031Z,68.19
2022-10-23T02:46:29.809Z,68.58
2022-10-23T02:49:41.228Z,68.82
2022-10-23T02:52:57.346Z,68.73
2022-10-23T02:56:08.599Z,68.81
2022-10-23T02:59:21.452Z,68.55
2022-10-23T03:05:40.732Z,69.03
2022-10-23T03:08:45.556Z,68.61
2022-10-23T03:11:49.225Z,68.86
2022-10-23T03:14:52.960Z,68.88
2022-10-23T03:17:58.020Z,68.58
2022-10-23T03:21:01.427Z,68.48
2022-10-23T03:24:05.640Z,68.44
2022-10-23T03:27:14.863Z,68.79
2022-10-23T03:30:18.962Z,68.66
2022-10-23T03:33:28.014Z,68.47
2022-10-23T03:36:31.647Z,68.52
2022-10-23T03:39:35.287Z,68.34
2022-10-23T03:42:39.192Z,68.34
2022-10-23T03:45:42.637Z,68.71
2022-10-23T03:48:47.927Z,68.91
2022-10-23T03:51:52.739Z,69.09
2022-10-23T03:54:57.841Z,68.95
2022-10-23T03:58:01.365Z,68.82
2022-10-23T04:01:04.982Z,69.03
2022-10-23T04:04:09.951Z,70.03
2022-10-23T04:07:13.842Z,70.31
2022-10-23T04:10:17.318Z,69.96
2022-10-23T04:13:21.190Z,69.60
2022-10-23T04:16:25.231Z,69.73
2022-10-23T04:19:30.205Z,70.27
2022-10-23T04:22:37.050Z,70.12
2022-10-23T04:25:41.493Z,69.95
2022-10-23T04:28:45.259Z,69.79
2022-10-23T04:31:49.063Z,69.95
2022-10-23T04:34:55.074Z,69.80
2022-10-23T04:37:59.939Z,69.76
2022-10-23T04:41:03.498Z,69.87
2022-10-23T04:44:07.202Z,69.93
2022-10-23T04:47:16.952Z,70.15
2022-10-23T04:50:32.970Z,70.06
2022-10-23T04:53:52.114Z,70.42
2022-10-23T04:57:19.665Z,70.09
2022-10-23T05:00:37.663Z,71.78
2022-10-23T05:03:41.344Z,71.25
2022-10-23T05:06:46.396Z,71.31
2022-10-23T05:10:12.789Z,70.77
2022-10-23T05:13:24.429Z,70.71
2022-10-23T05:16:36.496Z,70.91
2022-10-23T05:19:44.906Z,70.63
2022-10-23T05:22:54.147Z,71.05
2022-10-23T05:26:03.193Z,71.24
2022-10-23T05:29:09.259Z,72.25
2022-10-23T05:32:15.939Z,70.80
2022-10-23T05:35:23.530Z,71.01
2022-10-23T05:38:33.751Z,70.67
2022-10-23T05:41:42.574Z,72.01
2022-10-23T05:44:46.324Z,72.49
2022-10-23T05:48:30.067Z,71.21
2022-10-23T05:51:56.360Z,70.95
2022-10-23T05:55:19.574Z,70.74
2022-10-23T05:58:35.154Z,71.67
2022-10-23T06:01:50.378Z,71.46
2022-10-23T06:05:08.834Z,71.50
2022-10-23T06:08:12.648Z,71.43
2022-10-23T06:11:18.839Z,71.18
2022-10-23T06:14:32.787Z,71.32
2022-10-23T06:17:36.561Z,70.86
2022-10-23T06:20:42.411Z,70.68
2022-10-23T06:23:52.020Z,70.31
2022-10-23T06:27:32.737Z,70.30
2022-10-23T06:30:55.031Z,70.18
2022-10-23T06:34:00.762Z,70.06
2022-10-23T06:37:07.216Z,69.75
2022-10-23T06:40:31.652Z,70.03
2022-10-23T06:43:39.777Z,69.85
2022-10-23T06:47:00.290Z,69.22
2022-10-23T06:50:27.371Z,69.33
2022-10-23T06:53:31.087Z,69.13
2022-10-23T06:56:43.200Z,69.07
2022-10-23T06:59:50.007Z,69.70
2022-10-23T07:02:54.591Z,70.29
2022-10-23T07:06:01.631Z,69.38
2022-10-23T07:09:05.674Z,69.32
2022-10-23T07:12:29.485Z,69.59
2022-10-23T07:16:13.878Z,69.47
2022-10-23T07:19:18.163Z,69.36
2022-10-23T07:22:35.420Z,68.90
2022-10-23T07:25:45.349Z,69.01
2022-10-23T07:28:57.088Z,69.03
2022-10-23T07:32:04.604Z,68.86
2022-10-23T07:35:17.262Z,68.92
2022-10-23T07:38:35.924Z,68.45
2022-10-23T07:41:39.546Z,69.02
2022-10-23T07:44:43.839Z,68.62
2022-10-23T07:47:53.358Z,68.73
2022-10-23T07:51:03.218Z,68.52
2022-10-23T07:54:11.743Z,69.29
2022-10-23T07:57:34.123Z,68.75
2022-10-23T08:01:05.938Z,68.82
2022-10-23T08:04:14.806Z,68.31
2022-10-23T08:07:29.511Z,68.46
2022-10-23T08:10:35.202Z,68.03
2022-10-23T08:13:39.285Z,67.88
2022-10-23T08:16:44.168Z,67.62
2022-10-23T08:19:54.687Z,67.45
2022-10-23T08:22:58.804Z,67.44
2022-10-23T08:26:05.576Z,67.60
2022-10-23T08:29:09.513Z,64.98
2022-10-23T08:32:13.288Z,65.18
2022-10-23T08:35:32.441Z,64.71
2022-10-23T08:38:36.253Z,64.35
2022-10-23T08:41:48.596Z,64.14
2022-10-23T08:45:02.851Z,64.96
2022-10-23T08:48:19.771Z,63.56
2022-10-23T08:51:53.501Z,64.12
2022-10-23T08:55:16.100Z,64.28
2022-10-23T08:58:29.421Z,64.48
2022-10-23T09:01:43.671Z,63.36
2022-10-23T09:04:49.842Z,63.76
2022-10-23T09:08:08.890Z,63.05
2022-10-23T09:11:23.771Z,62.79
2022-10-23T09:14:42.346Z,63.08
2022-10-23T09:17:47.848Z,62.57
2022-10-23T09:20:54.132Z,61.43
2022-10-23T09:23:58.963Z,61.13
2022-10-23T09:30:07.829Z,60.98
2022-10-23T09:33:18.051Z,60.73
2022-10-23T09:36:24.269Z,60.55
2022-10-23T09:39:32.062Z,59.84
2022-10-23T09:42:35.912Z,60.35
2022-10-23T09:45:42.629Z,59.60
2022-10-23T09:49:00.883Z,57.77
2022-10-23T09:52:25.271Z,56.64
2022-10-23T09:55:30.776Z,58.42
2022-10-23T09:58:38.195Z,58.90
2022-10-23T10:01:49.337Z,58.59
2022-10-23T10:05:25.050Z,58.15
2022-10-23T10:08:40.501Z,58.45
2022-10-23T10:11:51.099Z,57.11
2022-10-23T10:15:04.528Z,58.28
2022-10-23T10:18:17.105Z,58.98
2022-10-23T10:21:26.307Z,59.19
2022-10-23T10:24:35.905Z,59.60
2022-10-23T10:27:53.812Z,60.08
2022-10-23T10:31:10.004Z,58.62
2022-10-23T10:34:19.243Z,59.80
2022-10-23T10:37:36.195Z,59.12
2022-10-23T10:40:44.306Z,59.63
2022-10-23T10:44:03.222Z,60.07
2022-10-23T10:47:18.501Z,60.32
2022-10-23T10:50:31.261Z,59.78
2022-10-23T10:54:07.645Z,58.71
2022-10-23T10:57:22.029Z,58.77
2022-10-23T11:00:29.790Z,58.16
2022-10-23T11:03:41.232Z,58.87
2022-10-23T11:06:50.214Z,58.79
2022-10-23T11:09:55.977Z,58.49
2022-10-23T11:13:01.107Z,58.25
2022-10-23T11:16:12.926Z,58.33
2022-10-23T11:19:22.586Z,58.72
2022-10-23T11:22:35.084Z,57.53
2022-10-23T11:25:56.008Z,57.46
2022-10-23T11:29:19.045Z,57.44
2022-10-23T11:32:39.950Z,57.63
2022-10-23T11:36:07.820Z,58.31
2022-10-23T11:39:23.036Z,57.61
2022-10-23T11:42:33.943Z,57.14
2022-10-23T11:45:39.398Z,57.42
2022-10-23T11:48:48.264Z,57.35
2022-10-23T11:52:08.218Z,57.61
2022-10-23T11:55:57.489Z,57.36
2022-10-23T11:59:22.263Z,55.90
2022-10-23T12:02:33.726Z,56.83
2022-10-23T12:05:40.583Z,56.01
2022-10-23T12:08:55.457Z,55.98
2022-10-23T12:12:17.643Z,55.85
2022-10-23T12:15:24.914Z,56.23
2022-10-23T12:18:31.029Z,56.21
2022-10-23T12:21:41.477Z,55.56
2022-10-23T12:25:02.911Z,55.56
2022-10-23T12:28:14.258Z,55.39
2022-10-23T12:31:35.233Z,55.67
2022-10-23T12:40:30.807Z,54.57
2022-10-23T12:43:40.849Z,55.28
2022-10-23T12:46:51.003Z,53.53
2022-10-23T12:49:54.903Z,53.51
2022-10-23T12:53:02.500Z,54.45
2022-10-23T12:56:09.481Z,54.08
2022-10-23T12:59:20.310Z,53.83
2022-10-23T13:02:26.784Z,53.93
2022-10-23T13:05:31.754Z,53.88
2022-10-23T13:08:40.796Z,53.82
2022-10-23T13:12:22.599Z,53.32
2022-10-23T13:15:39.536Z,53.68
2022-10-23T13:18:43.767Z,53.29
2022-10-23T13:21:47.811Z,53.42
2022-10-23T13:24:52.224Z,53.26
2022-10-23T13:28:21.443Z,53.47
2022-10-23T13:31:40.985Z,54.12
2022-10-23T13:35:03.715Z,54.08
2022-10-23T13:38:16.297Z,54.29
2022-10-23T13:41:21.663Z,53.82
2022-10-23T13:44:26.516Z,53.29
2022-10-23T13:47:31.897Z,53.66
2022-10-23T13:50:37.670Z,53.83
2022-10-23T13:53:41.469Z,53.81
2022-10-23T13:56:47.367Z,53.79
2022-10-23T13:59:54.185Z,53.70
2022-10-23T14:03:01.028Z,53.17
2022-10-23T14:06:07.910Z,53.57
2022-10-23T14:09:15.035Z,53.39
2022-10-23T14:12:19.498Z,53.27
2022-10-23T14:15:24.113Z,53.65
2022-10-23T14:18:30.479Z,53.79
2022-10-23T14:21:34.921Z,53.66
2022-10-23T14:24:39.739Z,53.85
2022-10-23T14:27:43.826Z,53.91
2022-10-23T14:30:47.387Z,53.87
2022-10-23T14:33:56.995Z,53.37
2022-10-23T14:37:08.791Z,53.90
2022-10-23T14:40:13.790Z,53.76
2022-10-23T14:43:17.395Z,53.74
2022-10-23T14:46:23.611Z,54.14
2022-10-23T14:49:28.702Z,53.99
2022-10-23T14:52:32.716Z,54.49
2022-10-23T14:55:36.527Z,55.11
2022-10-23T14:58:42.680Z,55.46
2022-10-23T15:01:48.616Z,55.78
2022-10-23T15:04:54.683Z,55.92
2022-10-23T15:07:59.196Z,56.04
2022-10-23T15:11:05.708Z,56.04
2022-10-23T15:14:11.800Z,57.31
2022-10-23T15:17:16.258Z,57.28
2022-10-23T15:20:23.694Z,57.39
2022-10-23T15:23:27.638Z,57.32
2022-10-23T15:26:32.427Z,57.91
2022-10-23T15:29:36.509Z,57.83
2022-10-23T15:32:40.552Z,57.84
2022-10-23T15:35:46.115Z,57.96
2022-10-23T15:38:50.307Z,58.57
2022-10-23T15:41:58.207Z,58.51
2022-10-23T15:45:02.585Z,58.63
2022-10-23T15:48:08.942Z,58.61
2022-10-23T15:51:15.663Z,58.38
2022-10-23T15:54:26.962Z,58.69
2022-10-23T15:57:32.996Z,59.02
2022-10-23T16:00:38.458Z,59.17
2022-10-23T16:03:43.919Z,59.87
2022-10-23T16:06:52.024Z,60.01
2022-10-23T16:09:56.557Z,60.07
2022-10-23T16:13:01.073Z,60.30
2022-10-23T16:16:05.038Z,60.56
2022-10-23T16:19:08.929Z,60.54
2022-10-23T16:22:15.112Z,61.35
2022-10-23T16:25:19.166Z,61.74
2022-10-23T16:28:23.048Z,61.76
2022-10-23T16:31:27.738Z,62.11
2022-10-23T16:34:31.351Z,62.51
2022-10-23T16:37:37.006Z,61.93
2022-10-23T16:40:52.030Z,61.81
2022-10-23T16:44:18.810Z,62.16
2022-10-23T16:47:43.066Z,62.01
2022-10-23T16:50:47.370Z,62.12
2022-10-23T16:53:52.952Z,61.98
2022-10-23T16:56:58.832Z,61.92
2022-10-23T17:00:02.536Z,62.47
2022-10-23T17:03:10.898Z,62.16
2022-10-23T17:06:18.176Z,61.99
2022-10-23T17:09:23.727Z,62.40
2022-10-23T17:12:30.410Z,62.56
2022-10-23T17:15:34.542Z,62.75
2022-10-23T17:18:42.877Z,62.92
2022-10-23T17:21:49.998Z,63.53
2022-10-23T17:24:55.020Z,62.89
2022-10-23T17:27:59.641Z,62.63
2022-10-23T17:31:04.392Z,63.14
2022-10-23T17:34:12.023Z,63.12
2022-10-23T17:37:17.429Z,63.06
2022-10-23T17:40:33.085Z,62.98
2022-10-23T17:43:37.439Z,62.76
2022-10-23T17:46:41.410Z,62.68
2022-10-23T17:49:46.162Z,62.22
2022-10-23T17:52:50.542Z,61.91
2022-10-23T17:55:55.940Z,62.54
2022-10-23T17:59:03.458Z,62.25
2022-10-23T18:02:08.574Z,62.71
2022-10-23T18:05:13.180Z,62.95
2022-10-23T18:08:17.803Z,62.27
2022-10-23T18:11:26.142Z,62.64
2022-10-23T18:14:31.709Z,62.20
2022-10-23T18:17:36.880Z,63.23
2022-10-23T18:20:42.010Z,62.26
2022-10-23T18:23:46.402Z,62.24
2022-10-23T18:26:52.764Z,62.82
2022-10-23T18:29:58.867Z,62.81
2022-10-23T18:33:03.258Z,61.90
2022-10-23T18:36:18.698Z,61.99
2022-10-23T18:39:29.375Z,62.41
2022-10-23T18:42:37.762Z,62.99
2022-10-23T18:45:43.927Z,63.00
2022-10-23T18:48:50.725Z,62.34
2022-10-23T18:51:56.382Z,62.65
2022-10-23T18:55:00.675Z,62.56
2022-10-23T18:58:05.930Z,63.45
2022-10-23T19:01:25.876Z,63.92
2022-10-23T19:04:35.555Z,64.04
2022-10-23T19:07:45.744Z,64.17
2022-10-23T19:10:54.055Z,62.73
2022-10-23T19:13:59.114Z,62.19
2022-10-23T19:17:07.837Z,62.67
2022-10-23T19:20:15.688Z,63.38
2022-10-23T19:23:19.928Z,62.80
2022-10-23T19:26:23.770Z,62.32
2022-10-23T19:29:31.632Z,62.97
2022-10-23T19:32:37.323Z,63.19
2022-10-23T19:35:41.157Z,63.31
2022-10-23T19:38:45.061Z,65.36
2022-10-23T19:41:51.720Z,64.38
2022-10-23T19:44:57.842Z,64.60
2022-10-23T19:48:01.637Z,63.68
2022-10-23T19:51:09.807Z,63.50
2022-10-23T19:54:13.793Z,63.38
2022-10-23T19:57:19.320Z,63.97
2022-10-23T20:00:29.099Z,63.04
2022-10-23T20:03:33.432Z,63.42
2022-10-23T20:06:38.784Z,64.73
2022-10-23T20:09:43.047Z,65.51
2022-10-23T20:12:56.402Z,65.15
2022-10-23T20:16:09.065Z,64.55
2022-10-23T20:19:14.934Z,63.56
2022-10-23T20:22:19.601Z,64.57
2022-10-23T20:25:23.221Z,64.34
2022-10-23T20:28:27.523Z,63.99
2022-10-23T20:31:36.694Z,64.54
2022-10-23T20:34:41.476Z,64.07
2022-10-23T20:37:45.923Z,64.31
2022-10-23T20:40:50.451Z,63.85
2022-10-23T20:43:56.804Z,63.77
2022-10-23T20:47:02.435Z,64.27
2022-10-23T20:50:06.787Z,62.70
2022-10-23T20:53:11.430Z,61.83
2022-10-23T20:56:18.561Z,62.97
2022-10-23T20:59:22.786Z,63.89
2022-10-23T21:02:30.193Z,63.18
2022-10-23T21:05:36.188Z,62.63
2022-10-23T21:08:41.210Z,63.05
2022-10-23T21:11:45.374Z,63.14
2022-10-23T21:14:49.105Z,64.09
2022-10-23T21:17:56.867Z,62.75
2022-10-23T21:21:03.310Z,62.99
2022-10-23T21:24:09.778Z,63.13
2022-10-23T21:27:15.228Z,63.69
2022-10-23T21:30:20.591Z,63.40
2022-10-23T21:33:26.145Z,62.22
2022-10-23T21:36:32.227Z,63.01
2022-10-23T21:39:37.640Z,61.68
2022-10-23T21:42:41.451Z,61.08
2022-10-23T21:45:45.025Z,61.32
2022-10-23T21:48:52.995Z,61.64
2022-10-23T21:51:57.820Z,61.55
2022-10-23T21:55:02.747Z,61.67
2022-10-23T21:58:08.072Z,62.49
2022-10-23T22:01:14.844Z,63.19
2022-10-23T22:04:22.238Z,62.79
2022-10-23T22:07:26.121Z,62.26
2022-10-23T22:10:29.654Z,62.00
2022-10-23T22:13:33.804Z,61.30
2022-10-23T22:16:44.610Z,60.95
2022-10-23T22:19:50.044Z,61.10
2022-10-23T22:22:53.610Z,62.05
2022-10-23T22:25:57.732Z,62.78
2022-10-23T22:29:03.285Z,62.68
2022-10-23T22:32:08.687Z,62.86
2022-10-23T22:35:14.045Z,61.75
2022-10-23T22:38:18.000Z,61.37
2022-10-23T22:41:22.183Z,61.59
2022-10-23T22:44:27.204Z,63.17
2022-10-23T22:47:31.683Z,63.57
2022-10-23T22:50:37.338Z,62.33
2022-10-23T22:53:41.081Z,62.10
2022-10-23T22:56:45.106Z,61.71
2022-10-23T22:59:48.686Z,61.82
2022-10-23T23:02:52.647Z,62.42
2022-10-23T23:05:58.491Z,62.14
2022-10-23T23:09:03.014Z,61.67
2022-10-23T23:12:07.135Z,61.09
2022-10-23T23:15:11.318Z,60.69
2022-10-23T23:18:15.201Z,61.54
2022-10-23T23:21:21.022Z,60.66
2022-10-23T23:24:24.887Z,61.88
2022-10-23T23:27:28.838Z,61.14
2022-10-23T23:30:35.212Z,62.68
2022-10-23T23:33:39.492Z,62.58
2022-10-23T23:36:46.916Z,62.20
2022-10-23T23:39:50.937Z,62.17
2022-10-23T23:42:54.531Z,62.08
2022-10-23T23:45:59.743Z,60.88
2022-10-23T23:49:03.446Z,61.45
2022-10-23T23:52:09.895Z,61.73
2022-10-23T23:55:14.507Z,60.80
2022-10-23T23:58:19.870Z,61.72
